Time;durP1;ratioP1;P1;durP2;ratioP2;P2;SDS_P1;SDS_P2;PMS_P1;PMS_P2;Temp;Humidity;BMP_temperature;BMP_pressure;BME280_temperature;BME280_humidity;BME280_pressure;Samples;Min_cycle;Max_cycle;Signal;HPM_P1;HPM_P2
2021/07/21 00:02:21;;;;;;;5.83;5.13;;;;;;;29.25;48.96;100291.96;127918;1087;64242;-86
2021/07/21 00:04:47;;;;;;;6.00;5.40;;;;;;;29.24;49.00;100301.13;127916;1089;64141;-86
2021/07/21 00:07:16;;;;;;;6.53;5.03;;;;;;;29.24;48.73;100298.41;127917;1087;64333;-86
2021/07/21 00:09:42;;;;;;;;;;;;;;;29.24;48.90;100300.27;127942;1087;64275;-87
2021/07/21 00:14:56;;;;;;;5.33;4.80;;;;;;;29.22;48.95;100308.59;127906;1087;64145;-86
2021/07/21 00:17:31;;;;;;;5.67;5.17;;;;;;;29.22;48.63;100305.05;127852;1087;64115;-86
2021/07/21 00:20:08;;;;;;;5.37;4.87;;;;;;;29.22;49.08;100297.73;127902;1087;64429;-86
2021/07/21 00:22:44;;;;;;;5.80;5.00;;;;;;;29.22;49.08;100310.48;127882;1087;64108;-86
2021/07/21 00:25:15;;;;;;;5.03;4.47;;;;;;;29.22;48.64;100305.05;127908;1087;64189;-85
2021/07/21 00:27:45;;;;;;;5.37;4.87;;;;;;;29.22;48.60;100305.05;127896;1087;64183;-85
2021/07/21 00:30:13;;;;;;;5.60;5.00;;;;;;;29.22;49.05;100310.48;127887;1087;64163;-85
2021/07/21 00:32:41;;;;;;;5.50;4.70;;;;;;;29.20;49.09;100310.66;128146;1087;64131;-86
2021/07/21 00:35:09;;;;;;;5.83;4.80;;;;;;;29.22;48.87;100313.20;128373;1087;64179;-87
2021/07/21 00:37:36;;;;;;;5.68;4.93;;;;;;;29.21;49.06;100315.05;128373;1087;64096;-86
2021/07/21 00:40:04;;;;;;;5.27;4.77;;;;;;;29.21;48.94;100315.05;128357;1087;64310;-86
2021/07/21 00:42:31;;;;;;;5.20;4.70;;;;;;;29.21;49.05;100312.34;128392;1087;64231;-86
2021/07/21 00:44:57;;;;;;;5.83;4.97;;;;;;;29.21;48.68;100316.94;128375;1086;64173;-86
2021/07/21 00:47:24;;;;;;;5.83;4.70;;;;;;;29.21;49.18;100316.94;128339;1084;64131;-85
2021/07/21 00:49:52;;;;;;;5.83;5.10;;;;;;;29.22;48.92;100324.07;128352;1086;61697;-86
2021/07/21 00:52:19;;;;;;;6.20;5.03;;;;;;;29.20;48.90;100318.81;128369;1087;64176;-86
2021/07/21 00:54:45;;;;;;;5.37;4.87;;;;;;;29.21;48.50;100322.38;128356;1087;64262;-86
2021/07/21 00:57:13;;;;;;;4.97;4.47;;;;;;;29.20;48.78;100317.95;128369;1086;64096;-85
2021/07/21 00:59:42;;;;;;;5.60;4.80;;;;;;;29.20;48.78;100309.80;128320;1087;64360;-86
2021/07/21 01:02:12;;;;;;;6.03;5.13;;;;;;;29.19;48.92;100319.83;128407;1087;64131;-85
2021/07/21 01:04:41;;;;;;;5.33;4.50;;;;;;;29.19;48.78;100322.55;128377;1087;64128;-85
2021/07/21 01:07:08;;;;;;;5.93;4.77;;;;;;;29.20;48.91;100312.52;128372;1086;64120;-86
2021/07/21 01:09:42;;;;;;;5.47;4.93;;;;;;;29.19;49.02;100308.96;128356;1086;64192;-86
2021/07/21 01:12:20;;;;;;;5.73;4.60;;;;;;;29.18;48.72;100312.70;128394;1086;64138;-86
2021/07/21 01:15:10;;;;;;;5.53;4.90;;;;;;;29.18;49.14;100315.41;128378;1085;64119;-86
2021/07/21 01:18:14;;;;;;;5.60;4.70;;;;;;;29.18;48.97;100315.41;128369;1087;64285;-84
2021/07/21 01:21:12;;;;;;;4.97;4.47;;;;;;;29.18;49.06;100320.84;127915;1086;64135;-86
2021/07/21 01:24:08;;;;;;;5.80;4.97;;;;;;;29.18;49.04;100328.17;127926;1087;64317;-85
2021/07/21 01:26:49;;;;;;;5.67;4.70;;;;;;;29.17;48.95;100321.86;127729;1090;64379;-85
2021/07/21 01:29:18;;;;;;;5.10;4.60;;;;;;;29.18;49.00;100317.30;127684;1090;64144;-86
2021/07/21 01:31:48;;;;;;;6.40;5.10;;;;;;;29.19;49.15;100321.69;127712;1090;64275;-85
2021/07/21 01:34:27;;;;;;;5.67;5.07;;;;;;;29.18;48.92;100326.28;127725;1090;64396;-85
2021/07/21 01:36:55;;;;;;;5.30;4.80;;;;;;;29.18;48.97;100329.00;127688;1090;64217;-85
2021/07/21 01:39:25;;;;;;;5.60;4.50;;;;;;;29.19;48.86;100316.25;127685;1090;64221;-85
2021/07/21 01:41:57;;;;;;;5.30;4.80;;;;;;;29.18;48.96;100317.30;127686;1090;65048;-85
2021/07/21 01:44:26;;;;;;;5.17;4.67;;;;;;;29.19;48.70;100316.25;127720;1090;64250;-84
2021/07/21 01:46:53;;;;;;;;;;;;;;;29.17;49.10;100312.88;127737;1090;64150;-84
2021/07/21 01:49:22;;;;;;;5.47;4.87;;;;;;;29.17;49.06;100315.59;127734;1090;63952;-86
2021/07/21 01:51:51;;;;;;;5.30;4.45;;;;;;;29.16;49.27;100314.76;127686;1089;64140;-85
2021/07/21 01:54:21;;;;;;;5.93;5.00;;;;;;;29.17;49.36;100312.88;127712;1090;64172;-86
2021/07/21 01:56:48;;;;;;;5.57;4.90;;;;;;;29.17;48.87;100312.88;127709;1090;64243;-85
2021/07/21 01:59:15;;;;;;;5.40;4.67;;;;;;;29.17;48.98;100318.31;127885;1087;64160;-85
2021/07/21 02:01:45;;;;;;;5.50;4.90;;;;;;;29.16;48.75;100314.76;127915;1087;64275;-86
2021/07/21 02:04:12;;;;;;;5.40;4.73;;;;;;;29.16;48.93;100316.61;128161;1087;64099;-86
2021/07/21 02:06:38;;;;;;;4.77;4.30;;;;;;;29.17;48.76;100318.31;128373;1087;64164;-86
2021/07/21 02:09:09;;;;;;;5.33;4.63;;;;;;;29.16;48.90;100314.76;128322;1087;64125;-86
2021/07/21 02:11:37;;;;;;;4.93;4.37;;;;;;;29.16;49.27;100314.76;128347;1087;64136;-86
2021/07/21 02:14:05;;;;;;;5.25;4.60;;;;;;;29.16;48.93;100314.76;128388;1087;64216;-86
2021/07/21 02:16:33;;;;;;;5.87;4.53;;;;;;;29.15;49.07;100307.62;128363;1087;63950;-85
2021/07/21 02:18:59;;;;;;;5.17;4.43;;;;;;;29.16;49.00;100311.17;128375;1086;64665;-86
2021/07/21 02:21:26;;;;;;;5.57;4.57;;;;;;;29.15;49.17;100315.77;128353;1087;64368;-86
2021/07/21 02:23:52;;;;;;;5.33;4.60;;;;;;;29.15;49.02;100313.05;128394;1087;64135;-85
2021/07/21 02:26:21;;;;;;;6.03;4.40;;;;;;;29.16;49.25;100311.17;128396;1086;64220;-85
2021/07/21 02:28:50;;;;;;;5.37;4.73;;;;;;;29.16;48.86;100316.61;128378;1086;64102;-85
2021/07/21 02:31:34;;;;;;;4.83;4.30;;;;;;;29.16;49.06;100328.34;128361;1087;64210;-85
2021/07/21 02:34:04;;;;;;;5.10;4.37;;;;;;;29.15;49.02;100323.92;128406;1086;64257;-86
2021/07/21 02:36:31;;;;;;;4.87;4.37;;;;;;;29.15;48.76;100326.64;128361;1087;64311;-86
2021/07/21 02:38:59;;;;;;;5.57;4.57;;;;;;;29.16;49.17;100332.91;128357;1086;64282;-86
2021/07/21 02:41:26;;;;;;;6.50;4.70;;;;;;;29.16;48.82;100327.48;128398;1086;64176;-85
2021/07/21 02:43:53;;;;;;;5.53;4.73;;;;;;;29.15;48.98;100325.78;128414;1087;64171;-85
2021/07/21 02:46:19;;;;;;;5.10;4.43;;;;;;;29.16;48.85;100324.77;128382;1087;64246;-86
2021/07/21 02:48:49;;;;;;;5.40;4.30;;;;;;;29.15;48.98;100332.08;128374;1087;64135;-86
2021/07/21 02:51:37;;;;;;;5.73;4.70;;;;;;;29.15;49.19;100339.36;128375;1087;61751;-86
2021/07/21 02:54:27;;;;;;;5.60;4.10;;;;;;;29.14;49.16;100341.25;128400;1087;64147;-85
2021/07/21 02:56:56;;;;;;;5.03;4.53;;;;;;;29.14;48.91;100335.81;128395;1087;64310;-86
2021/07/21 02:59:24;;;;;;;4.93;4.43;;;;;;;29.13;49.03;100333.27;128374;1087;64128;-84
2021/07/21 03:01:50;;;;;;;6.10;4.35;;;;;;;29.15;49.21;100333.93;128381;1087;64173;-84
2021/07/21 03:04:21;;;;;;;6.00;4.60;;;;;;;29.14;49.28;100330.38;128384;1085;64147;-85
2021/07/21 03:06:49;;;;;;;5.73;4.20;;;;;;;29.14;49.17;100338.53;128355;1087;64371;-85
2021/07/21 03:09:16;;;;;;;4.73;4.10;;;;;;;29.15;48.68;100331.21;128372;1087;64126;-86
2021/07/21 03:11:43;;;;;;;5.47;4.60;;;;;;;29.14;48.84;100335.81;128407;1087;64158;-86
2021/07/21 03:14:20;;;;;;;5.20;4.33;;;;;;;29.15;48.90;100340.23;128421;1087;64099;-85
2021/07/21 03:16:47;;;;;;;5.60;4.50;;;;;;;29.15;49.14;100333.93;128391;1086;64281;-86
2021/07/21 03:19:25;;;;;;;5.53;3.97;;;;;;;29.14;48.76;100335.81;128389;1086;64147;-86
2021/07/21 03:21:51;;;;;;;5.87;4.50;;;;;;;29.14;49.13;100349.41;128371;1087;64126;-85
2021/07/21 03:24:26;;;;;;;4.93;4.10;;;;;;;29.14;48.77;100338.53;128364;1086;64099;-85
2021/07/21 03:26:53;;;;;;;5.70;4.33;;;;;;;29.15;48.86;100352.95;128367;1087;64265;-85
2021/07/21 03:29:32;;;;;;;6.90;4.70;;;;;;;29.14;48.76;100354.84;128380;1086;64100;-84
2021/07/21 03:31:58;;;;;;;5.03;4.43;;;;;;;29.14;48.93;100362.98;128368;1086;64208;-86
2021/07/21 03:34:25;;;;;;;5.03;4.30;;;;;;;29.15;48.64;100361.11;128376;1087;64199;-85
2021/07/21 03:36:55;;;;;;;6.00;4.17;;;;;;;29.15;48.97;100361.98;128370;1086;64105;-86
2021/07/21 03:39:22;;;;;;;5.20;4.60;;;;;;;29.14;49.01;100357.55;128432;1085;63949;-85
2021/07/21 03:41:48;;;;;;;6.07;4.43;;;;;;;29.15;48.71;100363.83;128450;1085;64301;-85
2021/07/21 03:44:17;;;;;;;5.97;4.57;;;;;;;29.15;49.14;100361.98;128471;1086;64285;-86
2021/07/21 03:46:43;;;;;;;;;;;;;;;29.14;48.71;100371.14;128490;1087;62057;-85
2021/07/21 03:49:10;;;;;;;5.07;4.00;;;;;;;29.14;48.94;100373.02;128399;1086;64169;-85
2021/07/21 03:51:41;;;;;;;4.87;3.90;;;;;;;29.14;48.88;100376.58;128394;1085;64091;-85
2021/07/21 03:54:17;;;;;;;5.27;4.30;;;;;;;29.15;48.94;100377.41;128399;1087;64349;-86
2021/07/21 03:56:44;;;;;;;4.73;4.10;;;;;;;29.14;49.09;100384.73;128377;1087;64206;-85
2021/07/21 03:59:18;;;;;;;5.77;4.30;;;;;;;29.15;48.86;100378.28;128395;1086;64663;-85
2021/07/21 04:01:47;;;;;;;5.37;4.20;;;;;;;29.15;49.24;100388.28;128379;1085;62469;-86
2021/07/21 04:04:19;;;;;;;5.10;4.20;;;;;;;29.15;48.71;100381.00;128389;1086;64115;-86
2021/07/21 04:06:46;;;;;;;;;;;;;;;29.12;49.05;100386.76;128412;1087;64722;-85
2021/07/21 04:09:16;;;;;;;5.00;4.10;;;;;;;29.13;48.72;100390.34;128410;1087;64131;-86
2021/07/21 04:11:43;;;;;;;5.43;4.03;;;;;;;29.12;48.75;100397.63;128358;1085;64281;-85
2021/07/21 04:14:19;;;;;;;6.40;4.77;;;;;;;29.11;48.97;100395.95;128400;1087;64134;-85
2021/07/21 04:16:51;;;;;;;5.83;4.20;;;;;;;29.09;49.13;100404.28;128357;1087;64179;-85
2021/07/21 04:19:19;;;;;;;5.77;4.00;;;;;;;29.09;48.71;100406.14;128363;1087;64212;-85
2021/07/21 04:21:47;;;;;;;6.03;4.30;;;;;;;29.08;48.93;100410.73;128364;1086;64171;-87
2021/07/21 04:24:14;;;;;;;6.50;4.65;;;;;;;29.08;48.35;100412.59;128370;1086;64157;-85
2021/07/21 04:26:42;;;;;;;5.33;4.33;;;;;;;29.08;48.46;100407.15;128340;1087;63970;-85
2021/07/21 04:29:14;;;;;;;6.90;4.53;;;;;;;29.07;48.67;100405.48;128350;1086;64096;-86
2021/07/21 04:31:45;;;;;;;6.20;4.43;;;;;;;29.06;48.29;100396.45;128340;1086;64141;-85
2021/07/21 04:34:13;;;;;;;9.03;4.53;;;;;;;29.06;47.97;100406.49;128377;1087;64179;-85
2021/07/21 04:36:40;;;;;;;8.95;4.53;;;;;;;29.06;48.12;100406.49;128385;1087;64108;-86
2021/07/21 04:39:07;;;;;;;6.20;4.20;;;;;;;29.04;48.16;100406.67;128361;1085;64345;-85
2021/07/21 04:41:34;;;;;;;6.50;4.53;;;;;;;29.05;47.57;100411.06;128341;1087;64144;-85
2021/07/21 04:44:04;;;;;;;7.20;4.80;;;;;;;29.05;47.49;100412.94;128350;1087;64665;-85
2021/07/21 04:46:36;;;;;;;5.67;4.57;;;;;;;29.05;47.64;100415.66;128382;1087;64095;-86
2021/07/21 04:49:03;;;;;;;6.87;4.43;;;;;;;29.05;47.26;100418.38;128360;1086;62008;-85
2021/07/21 04:51:32;;;;;;;6.20;4.90;;;;;;;29.06;47.41;100417.36;128341;1087;64267;-85
2021/07/21 04:54:04;;;;;;;6.33;4.77;;;;;;;29.05;47.55;100418.38;128402;1087;64228;-85
2021/07/21 04:56:31;;;;;;;8.10;4.70;;;;;;;29.04;47.39;100414.82;128339;1085;64099;-85
2021/07/21 04:58:58;;;;;;;6.30;5.10;;;;;;;29.05;47.07;100410.22;128333;1084;64160;-86
2021/07/21 05:01:28;;;;;;;6.50;4.90;;;;;;;29.05;47.22;100412.94;128372;1087;64274;-86
2021/07/21 05:03:54;;;;;;;6.53;5.07;;;;;;;29.04;46.89;100413.95;128358;1087;64134;-85
2021/07/21 05:06:25;;;;;;;9.03;4.97;;;;;;;29.05;47.05;100418.38;128392;1087;64285;-86
2021/07/21 05:08:51;;;;;;;7.13;4.80;;;;;;;29.04;46.34;100413.95;128371;1086;64120;-86
2021/07/21 05:11:19;;;;;;;6.60;4.90;;;;;;;29.04;46.83;100422.11;128340;1087;64294;-86
2021/07/21 05:13:46;;;;;;;7.43;5.27;;;;;;;29.04;46.31;100422.11;128404;1087;64138;-85
2021/07/21 05:16:13;;;;;;;8.23;5.20;;;;;;;29.03;46.56;100426.70;128347;1087;65338;-85
2021/07/21 05:18:42;;;;;;;8.38;5.25;;;;;;;29.04;46.16;100433.84;128395;1086;64147;-85
2021/07/21 05:21:09;;;;;;;6.93;5.20;;;;;;;29.03;45.92;100432.14;128321;1087;64099;-85
2021/07/21 05:23:36;;;;;;;9.40;5.63;;;;;;;29.04;46.07;100432.98;128347;1087;64138;-85
2021/07/21 05:26:08;;;;;;;7.10;5.67;;;;;;;29.03;46.02;100431.30;128350;1087;64135;-85
2021/07/21 05:28:37;;;;;;;9.20;5.60;;;;;;;29.04;46.01;100432.98;128390;1087;64156;-86
2021/07/21 05:31:04;;;;;;;8.20;5.30;;;;;;;29.05;46.04;100437.40;128359;1087;64192;-86
2021/07/21 05:33:31;;;;;;;10.07;5.70;;;;;;;29.04;45.70;100441.13;128386;1086;65084;-85
2021/07/21 05:35:58;;;;;;;7.60;5.27;;;;;;;29.03;45.83;100434.02;128379;1087;64185;-86
2021/07/21 05:38:34;;;;;;;8.97;5.37;;;;;;;29.04;45.94;100433.84;128378;1087;64285;-86
2021/07/21 05:41:12;;;;;;;7.10;5.03;;;;;;;29.05;45.84;100440.11;128354;1087;64294;-85
2021/07/21 05:43:38;;;;;;;6.23;5.10;;;;;;;29.06;45.26;100444.53;128383;1087;64182;-85
2021/07/21 05:46:05;;;;;;;7.87;5.33;;;;;;;29.06;45.41;100444.53;128366;1087;64597;-85
2021/07/21 05:48:31;;;;;;;5.90;4.67;;;;;;;29.07;45.29;100444.36;128341;1087;64230;-85
2021/07/21 05:50:58;;;;;;;8.47;5.40;;;;;;;29.08;45.23;100453.34;128361;1086;64233;-85
2021/07/21 05:53:27;;;;;;;6.83;5.30;;;;;;;29.08;45.82;100443.34;128383;1087;64174;-85
2021/07/21 05:56:21;;;;;;;6.03;5.07;;;;;;;29.08;45.41;100453.34;128376;1086;64287;-85
2021/07/21 05:58:57;;;;;;;9.33;5.90;;;;;;;29.09;45.19;100455.05;128371;1087;64176;-85
2021/07/21 06:01:24;;;;;;;8.30;5.43;;;;;;;29.08;45.19;100448.78;128361;1087;64134;-85
2021/07/21 06:03:51;;;;;;;6.53;4.73;;;;;;;29.10;45.14;100445.89;128395;1087;64123;-83
2021/07/21 06:06:41;;;;;;;8.37;5.10;;;;;;;29.10;45.24;100451.33;128371;1086;64216;-84
2021/07/21 06:09:07;;;;;;;8.80;5.33;;;;;;;29.09;45.09;100461.36;127944;1090;64125;-84
2021/07/21 06:11:34;;;;;;;7.30;5.20;;;;;;;29.11;45.48;100458.46;127902;1087;64261;-85
2021/07/21 06:14:26;;;;;;;7.83;5.57;;;;;;;29.11;45.19;100455.75;127921;1087;64274;-84
2021/07/21 06:16:53;;;;;;;7.93;5.90;;;;;;;29.11;45.17;100458.46;127798;1090;64186;-86
2021/07/21 06:19:33;;;;;;;8.80;5.63;;;;;;;29.13;44.95;100450.97;127723;1088;64665;-85
2021/07/21 06:22:03;;;;;;;7.65;5.20;;;;;;;29.13;45.19;100455.56;127897;1090;65486;-85
2021/07/21 06:24:56;;;;;;;7.43;5.13;;;;;;;29.14;45.11;100462.71;127720;1090;64189;-85
2021/07/21 06:27:22;;;;;;;7.67;5.23;;;;;;;29.14;45.27;100466.27;127656;1093;64297;-85
2021/07/21 06:29:49;;;;;;;8.30;5.70;;;;;;;29.14;44.95;100466.27;127336;1092;64317;-85
2021/07/21 06:32:15;;;;;;;8.03;5.27;;;;;;;29.15;44.73;100465.25;127299;1093;64192;-86
2021/07/21 06:34:42;;;;;;;8.83;5.80;;;;;;;29.16;45.01;100466.09;127348;1093;64111;-85
2021/07/21 06:37:08;;;;;;;10.23;5.90;;;;;;;29.16;44.74;100469.67;127384;1092;64298;-85
2021/07/21 06:39:35;;;;;;;9.00;6.50;;;;;;;29.17;44.81;100467.80;127680;1093;64146;-85
2021/07/21 06:42:02;;;;;;;7.43;5.80;;;;;;;29.16;45.22;100472.39;127683;1093;64247;-85
2021/07/21 06:44:29;;;;;;;10.43;5.93;;;;;;;29.16;45.01;100464.23;127343;1092;63335;-86
2021/07/21 06:46:55;;;;;;;10.07;6.27;;;;;;;29.17;44.56;100471.34;127709;1090;64179;-85
2021/07/21 06:49:22;;;;;;;8.37;5.90;;;;;;;29.18;44.61;100472.22;127672;1090;64154;-85
2021/07/21 06:51:48;;;;;;;10.17;5.83;;;;;;;29.17;44.82;100470.52;127700;1090;64278;-85
2021/07/21 06:54:15;;;;;;;8.88;5.65;;;;;;;29.17;44.94;100475.95;127757;1090;64150;-84
2021/07/21 06:56:41;;;;;;;8.90;6.17;;;;;;;29.17;44.86;100473.23;127870;1090;64109;-85
2021/07/21 06:59:07;;;;;;;10.73;6.23;;;;;;;29.19;44.78;100479.33;127940;1089;64301;-84
2021/07/21 07:01:34;;;;;;;10.30;6.63;;;;;;;29.18;44.70;100473.05;127879;1090;64147;-85
2021/07/21 07:04:00;;;;;;;11.50;6.60;;;;;;;29.18;45.05;100470.34;127988;1087;64114;-85
2021/07/21 07:06:27;;;;;;;7.83;6.50;;;;;;;29.20;44.43;100475.59;128320;1085;64230;-85
2021/07/21 07:08:53;;;;;;;8.47;6.30;;;;;;;29.20;44.86;100470.16;128225;1086;64160;-85
2021/07/21 07:11:20;;;;;;;9.60;6.60;;;;;;;29.19;44.35;100468.45;128347;1087;64304;-85
2021/07/21 07:13:50;;;;;;;8.47;6.47;;;;;;;29.21;44.72;100471.86;128363;1087;64166;-85
2021/07/21 07:16:17;;;;;;;9.65;6.60;;;;;;;29.20;44.68;100472.88;128379;1087;64179;-87
2021/07/21 07:18:44;;;;;;;13.33;6.90;;;;;;;29.20;44.71;100465.59;128348;1087;64098;-85
2021/07/21 07:21:11;;;;;;;9.73;6.57;;;;;;;29.21;44.35;100466.42;128364;1087;64099;-85
2021/07/21 07:23:40;;;;;;;9.13;6.30;;;;;;;29.21;44.44;100474.58;128364;1085;64205;-85
2021/07/21 07:26:07;;;;;;;9.57;6.17;;;;;;;29.20;44.55;100476.47;128378;1087;64138;-85
2021/07/21 07:28:33;;;;;;;9.23;6.30;;;;;;;29.20;44.21;100476.47;128369;1087;65270;-87
2021/07/21 07:31:03;;;;;;;9.40;6.80;;;;;;;29.20;44.48;100476.47;128374;1087;64284;-86
2021/07/21 07:33:29;;;;;;;8.90;6.23;;;;;;;29.21;44.14;100480.02;128394;1087;64230;-86
2021/07/21 07:35:56;;;;;;;9.60;6.70;;;;;;;29.21;43.98;100482.73;128380;1087;64162;-86
2021/07/21 07:38:23;;;;;;;8.83;6.33;;;;;;;29.21;44.44;100474.58;128402;1087;64144;-87
2021/07/21 07:40:50;;;;;;;9.67;7.07;;;;;;;29.21;44.50;100478.14;128400;1087;64102;-84
2021/07/21 07:43:16;;;;;;;10.17;6.03;;;;;;;29.22;43.97;100477.13;128376;1087;64131;-86
2021/07/21 08:19:30;;;;;;;8.13;6.10;;;;;;;29.41;43.96;100475.09;129195;1082;62260;-84
2021/07/21 08:21:57;;;;;;;9.47;6.60;;;;;;;29.41;43.62;100473.21;128309;1084;64234;-84
2021/07/21 08:24:24;;;;;;;7.37;6.07;;;;;;;29.42;43.90;100471.36;128322;1084;64198;-85
2021/07/21 08:26:51;;;;;;;8.57;6.10;;;;;;;29.42;43.79;100468.64;128312;1084;64172;-85
2021/07/21 08:29:18;;;;;;;7.20;5.90;;;;;;;29.42;43.40;100474.08;128261;1084;64030;-84
2021/07/21 08:31:44;;;;;;;8.23;6.10;;;;;;;29.41;43.61;100467.77;128236;1084;64285;-83
2021/07/21 08:34:11;;;;;;;8.10;5.80;;;;;;;29.41;43.43;100469.66;128249;1084;64141;-83
2021/07/21 08:36:38;;;;;;;9.00;6.60;;;;;;;29.40;43.61;100466.09;128272;1082;64140;-85
2021/07/21 08:39:09;;;;;;;10.53;6.00;;;;;;;29.40;43.28;100466.09;128265;1084;64224;-85
2021/07/21 08:41:38;;;;;;;11.33;6.90;;;;;;;29.40;43.06;100465.23;128446;1084;64101;-85
2021/07/21 08:44:06;;;;;;;10.47;6.30;;;;;;;29.39;43.39;100466.25;128336;1084;64298;-87
2021/07/21 08:46:33;;;;;;;9.10;6.20;;;;;;;29.39;43.38;100461.67;128369;1083;64269;-84
2021/07/21 08:49:01;;;;;;;10.33;6.27;;;;;;;29.38;43.24;100459.97;128348;1085;64179;-84
2021/07/21 08:51:27;;;;;;;9.87;6.33;;;;;;;29.37;43.38;100460.98;128358;1084;64147;-84
2021/07/21 08:53:54;;;;;;;9.13;6.47;;;;;;;29.37;43.10;100454.72;128332;1084;64429;-84
2021/07/21 08:56:20;;;;;;;9.50;6.25;;;;;;;29.35;42.84;100449.45;128353;1084;64254;-84
2021/07/21 08:58:48;;;;;;;8.33;5.73;;;;;;;29.35;43.17;100443.15;128356;1084;63961;-84
2021/07/21 09:01:18;;;;;;;10.15;6.35;;;;;;;29.34;42.80;100445.03;128312;1084;64186;-85
2021/07/21 09:03:44;;;;;;;10.40;5.87;;;;;;;29.35;42.80;100451.30;128358;1084;64215;-85
2021/07/21 09:06:14;;;;;;;11.03;6.10;;;;;;;29.33;42.99;100448.77;128353;1084;64176;-85
2021/07/21 09:08:41;;;;;;;7.70;5.60;;;;;;;29.33;42.88;100445.20;128365;1084;64066;-86
2021/07/21 09:11:11;;;;;;;8.07;5.77;;;;;;;29.33;42.65;100442.48;128410;1084;64149;-85
2021/07/21 09:13:38;;;;;;;10.23;6.07;;;;;;;29.34;43.00;100444.20;128329;1084;64141;-85
2021/07/21 09:16:05;;;;;;;7.70;6.03;;;;;;;29.33;42.84;100443.33;128378;1084;64157;-84
2021/07/21 09:18:49;;;;;;;8.50;6.00;;;;;;;29.33;42.98;100439.77;128369;1084;64195;-86
2021/07/21 09:21:16;;;;;;;9.63;6.30;;;;;;;29.32;42.74;100441.63;128222;1084;64365;-85
2021/07/21 09:23:45;;;;;;;7.50;5.33;;;;;;;29.33;42.71;100428.89;128267;1084;64317;-84
2021/07/21 09:26:41;;;;;;;8.63;5.90;;;;;;;29.32;42.59;100432.63;128207;1084;64096;-84
2021/07/21 09:29:08;;;;;;;8.70;6.20;;;;;;;29.33;42.81;100431.62;128201;1084;64163;-85
2021/07/21 09:31:34;;;;;;;8.30;5.83;;;;;;;29.34;42.36;100430.60;128209;1084;64140;-84
2021/07/21 09:34:12;;;;;;;9.13;5.83;;;;;;;29.34;42.56;100433.31;128199;1084;64187;-85
2021/07/21 09:36:39;;;;;;;7.97;5.90;;;;;;;29.35;42.62;100435.86;128393;1083;64138;-85
2021/07/21 09:39:06;;;;;;;7.97;6.03;;;;;;;29.34;42.73;100430.60;128359;1084;64140;-86
2021/07/21 09:41:34;;;;;;;7.90;5.83;;;;;;;29.35;42.63;100432.27;128357;1082;64095;-85
2021/07/21 09:44:04;;;;;;;8.33;6.10;;;;;;;29.35;42.29;100430.42;128360;1086;64176;-85
2021/07/21 09:46:33;;;;;;;8.80;6.30;;;;;;;29.34;42.59;100434.16;128405;1084;64185;-85
2021/07/21 09:49:02;;;;;;;9.83;6.07;;;;;;;29.34;42.41;100434.16;128338;1084;63974;-85
2021/07/21 09:51:32;;;;;;;7.57;5.80;;;;;;;29.36;42.55;100433.98;128342;1084;64485;-86
2021/07/21 09:54:14;;;;;;;12.20;6.27;;;;;;;29.35;42.57;100426.84;128377;1084;64239;-85
2021/07/21 09:56:40;;;;;;;8.90;5.80;;;;;;;29.35;42.63;100422.27;128344;1084;64188;-85
2021/07/21 09:59:31;;;;;;;8.77;5.33;;;;;;;29.36;42.09;100423.10;128319;1084;64096;-85
2021/07/21 10:01:57;;;;;;;7.90;6.10;;;;;;;29.35;42.44;100418.68;128349;1084;64169;-84
2021/07/21 10:04:39;;;;;;;7.80;6.00;;;;;;;29.35;42.06;100415.96;128347;1084;64130;-85
2021/07/21 10:10:21;;;;;;;10.07;5.90;;;;;;;29.34;41.74;100417.84;128286;1084;64165;-85
2021/07/21 10:13:09;;;;;;;6.90;5.40;;;;;;;29.34;42.10;100406.13;128268;1082;64108;-84
2021/07/21 10:15:35;;;;;;;9.50;5.83;;;;;;;29.34;41.92;100406.13;128288;1084;64236;-84
2021/07/21 10:18:12;;;;;;;7.15;5.90;;;;;;;29.35;42.30;100402.37;128317;1084;64600;-84
2021/07/21 10:20:42;;;;;;;7.07;5.57;;;;;;;29.35;41.86;100400.52;128375;1084;64176;-85
2021/07/21 10:23:09;;;;;;;7.63;5.47;;;;;;;29.36;41.93;100398.63;128345;1084;64214;-87
2021/07/21 10:25:36;;;;;;;9.33;6.10;;;;;;;29.36;41.83;100385.04;128306;1084;64105;-85
2021/07/21 10:28:05;;;;;;;7.03;5.60;;;;;;;29.36;41.85;100382.33;128185;1084;64192;-82
2021/07/21 10:30:36;;;;;;;6.83;5.20;;;;;;;29.35;41.86;100380.62;128210;1084;64282;-83
2021/07/21 10:33:03;;;;;;;7.77;5.80;;;;;;;29.35;41.95;100386.92;128297;1084;64144;-83
2021/07/21 10:35:30;;;;;;;7.23;5.60;;;;;;;29.36;41.88;100382.33;128218;1084;64147;-83
2021/07/21 10:37:57;;;;;;;8.60;5.73;;;;;;;29.37;41.40;100390.30;128282;1084;64205;-83
2021/07/21 10:40:26;;;;;;;7.13;5.37;;;;;;;29.37;41.80;100376.70;128294;1084;64169;-84
2021/07/21 10:42:55;;;;;;;8.75;5.50;;;;;;;29.36;41.40;100375.03;128398;1082;64336;-86
2021/07/21 10:45:28;;;;;;;9.00;6.03;;;;;;;29.36;41.51;100372.31;128350;1084;64160;-84
2021/07/21 10:48:22;;;;;;;7.13;5.57;;;;;;;29.35;41.76;100378.77;128338;1084;64108;-84
2021/07/21 10:59:12;;;;;;;8.87;5.40;;;;;;;29.35;41.54;100361.59;128341;1084;65300;-81
2021/07/21 11:01:40;;;;;;;7.87;5.43;;;;;;;29.35;41.38;100358.87;128304;1085;64149;-84
2021/07/21 11:04:06;;;;;;;8.17;5.60;;;;;;;29.35;41.73;100357.02;128401;1087;64131;-84
2021/07/21 11:06:45;;;;;;;7.43;5.23;;;;;;;29.35;41.55;100353.44;128383;1084;64619;-84
2021/07/21 11:09:31;;;;;;;6.97;5.47;;;;;;;29.34;41.59;100358.03;128360;1084;64131;-84
2021/07/21 11:11:58;;;;;;;8.20;5.13;;;;;;;29.33;41.06;100350.89;128335;1084;64165;-84
2021/07/21 11:14:34;;;;;;;6.17;5.43;;;;;;;29.33;41.15;100342.73;128379;1083;64107;-85
2021/07/21 11:17:07;;;;;;;7.30;5.03;;;;;;;29.33;41.54;100342.73;128372;1084;64141;-85
2021/07/21 11:19:50;;;;;;;7.90;5.57;;;;;;;29.33;41.05;100331.03;128367;1084;64135;-85
2021/07/21 11:22:22;;;;;;;6.57;4.90;;;;;;;29.33;41.22;100322.88;128355;1084;64072;-85
2021/07/21 11:25:03;;;;;;;7.07;5.07;;;;;;;29.33;41.37;100325.59;128351;1084;64160;-85
2021/07/21 11:27:59;;;;;;;5.80;5.20;;;;;;;29.32;41.17;100318.45;128375;1084;64139;-85
2021/07/21 11:31:07;;;;;;;6.97;5.17;;;;;;;29.33;41.36;100318.27;128393;1084;64243;-85
2021/07/21 11:33:55;;;;;;;7.13;5.17;;;;;;;29.33;40.94;100309.28;127944;1087;63341;-85
2021/07/21 11:36:48;;;;;;;6.33;5.10;;;;;;;29.33;40.95;100315.55;127979;1087;64135;-85
2021/07/21 11:39:44;;;;;;;6.53;5.13;;;;;;;29.33;40.83;100312.84;128043;1087;64214;-85
2021/07/21 11:42:46;;;;;;;6.90;5.07;;;;;;;29.34;41.45;100308.27;128095;1087;64281;-84
2021/07/21 11:45:20;;;;;;;7.80;5.27;;;;;;;29.34;40.99;100309.09;127767;1090;63917;-84
2021/07/21 11:48:06;;;;;;;7.70;5.63;;;;;;;29.34;41.46;100309.09;127580;1090;64287;-86
2021/07/21 11:50:33;;;;;;;6.70;5.20;;;;;;;29.35;41.45;100308.08;127726;1090;64294;-83
2021/07/21 11:53:01;;;;;;;8.97;5.40;;;;;;;29.35;41.40;100299.92;127715;1090;64281;-85
2021/07/21 11:55:40;;;;;;;6.23;4.90;;;;;;;29.35;41.29;100305.36;127707;1090;64278;-84
2021/07/21 11:58:14;;;;;;;;;;;;;;;29.34;41.00;100314.53;127665;1090;64614;-84
2021/07/21 12:00:41;;;;;;;6.97;5.20;;;;;;;29.34;41.14;100319.14;127714;1090;64273;-85
2021/07/21 12:03:07;;;;;;;6.57;5.10;;;;;;;29.34;41.13;100333.56;127736;1090;64310;-85
2021/07/21 12:05:55;;;;;;;6.23;5.20;;;;;;;29.33;41.16;100334.58;127716;1089;64253;-85
2021/07/21 12:08:23;;;;;;;7.07;4.83;;;;;;;29.34;41.19;100330.02;127700;1090;64297;-84
2021/07/21 12:11:18;;;;;;;5.97;4.83;;;;;;;29.35;41.33;100337.13;127761;1087;64144;-85
2021/07/21 12:13:44;;;;;;;7.50;4.90;;;;;;;29.35;41.06;100337.13;127767;1089;64495;-85
2021/07/21 12:16:10;;;;;;;7.03;4.90;;;;;;;29.35;40.74;100343.42;127698;1090;64311;-85
2021/07/21 12:18:40;;;;;;;6.27;4.57;;;;;;;29.35;41.14;100332.55;127670;1090;64603;-84
2021/07/21 12:21:09;;;;;;;6.67;4.97;;;;;;;29.35;41.33;100332.55;127926;1087;64381;-84
2021/07/21 12:23:35;;;;;;;7.13;5.20;;;;;;;29.35;40.99;100332.55;127931;1087;64345;-84